Clark, Texas
Current Conditions -  °F | °C
As of 6:55 AM on Saturday 20 Dec 2014 (Local Time) from K6R3 Reporting Station
Overcast Overcast  
Wind Chill: 49°   Ceiling: 600
Heat Index: 49°   Visibility: 7mi
Dew Point: 48°   Wind: 3mph
Humidity: 97%   Direction: 10°N
Pressure: 30.19"   Gusts: NA
Location:  30.2945°N, 94.9711°W
Report Text: K6R3 201255Z AUTO 01003KT 7SM OVC006 10/09 A3019 RMK AO2 T00960091
Loading
Personal Weather Stations






























Interactive Weather Map New forecast layout! Learn more

10-Day Weather Forecast

Advertisements
Track Severe Weather on mobile